Time;durP1;ratioP1;P1;durP2;ratioP2;P2;SDS_P1;SDS_P2;PMS_P1;PMS_P2;Temp;Humidity;BMP_temperature;BMP_pressure;BME280_temperature;BME280_humidity;BME280_pressure;Samples;Min_cycle;Max_cycle;Signal;HPM_P1;HPM_P2
2021/11/20 00:00:24;;;;;;;;;;;;;;;;;;;;;
2021/11/20 00:03:43;;;;;;;;;;;;;;;;;;;;;
2021/11/20 00:06:54;;;;;;;5.00;2.10;;;;;;;10.35;90.39;101937.94;102470;1319;62371;-82
2021/11/20 00:09:35;;;;;;;7.10;2.30;;;;;;;10.35;90.62;101940.94;102598;1317;62033;-80
2021/11/20 00:12:47;;;;;;;;;;;;;;;;;;;;;
2021/11/20 00:16:00;;;;;;;5.80;2.60;;;;;;;10.34;90.70;101945.59;103089;1318;71569;-75
2021/11/20 00:18:44;;;;;;;6.70;2.70;;;;;;;10.32;90.82;101940.52;102572;1316;73578;-78
2021/11/20 00:21:36;;;;;;;;;;;;;;;10.32;90.83;101949.39;102573;1318;62216;-81
2021/11/20 00:25:07;;;;;;;6.70;2.60;;;;;;;10.31;91.11;101937.64;102851;1317;61315;-78
2021/11/20 00:28:21;;;;;;;3.70;2.00;;;;;;;10.29;91.14;101938.14;102373;1321;77681;-79
2021/11/20 00:30:53;;;;;;;6.10;2.60;;;;;;;10.28;91.20;101927.79;102473;1318;71443;-77
2021/11/20 00:34:01;;;;;;;3.10;2.30;;;;;;;10.28;91.31;101931.33;102527;1318;72935;-78
2021/11/20 00:37:29;;;;;;;7.60;2.90;;;;;;;10.27;91.50;101930.16;102216;1316;62763;-79
2021/11/20 00:40:13;;;;;;;6.70;2.80;;;;;;;10.27;91.35;101932.48;102672;1318;62685;-78
2021/11/20 00:43:42;;;;;;;12.70;2.90;;;;;;;10.27;91.36;101928.96;102385;1316;75954;-77
2021/11/20 00:46:51;;;;;;;4.30;2.80;;;;;;;10.27;91.33;101932.28;102376;1319;70358;-77
2021/11/20 00:50:02;;;;;;;4.50;2.70;;;;;;;10.27;91.27;101919.62;102697;1312;72455;-78
2021/11/20 00:53:18;;;;;;;;;;;;;;;;;;;;;
2021/11/20 00:56:33;;;;;;;4.70;2.20;;;;;;;10.26;91.49;101925.20;102592;1318;60678;-78
2021/11/20 00:59:39;;;;;;;;;;;;;;;;;;;;;
2021/11/20 01:03:08;;;;;;;6.20;2.80;;;;;;;10.25;91.74;101922.13;102571;1315;71698;-79
2021/11/20 01:06:42;;;;;;;6.20;2.80;;;;;;;10.25;91.98;101914.35;103000;1316;73955;-79
2021/11/20 01:09:51;;;;;;;8.50;3.10;;;;;;;10.24;92.16;101918.08;102850;1318;63889;-80
2021/11/20 01:12:42;;;;;;;;;;;;;;;;;;;;;
2021/11/20 01:15:50;;;;;;;5.80;2.60;;;;;;;10.26;92.30;101914.39;102578;1318;73987;-80
2021/11/20 01:19:18;;;;;;;7.60;2.50;;;;;;;10.25;92.20;101918.23;102785;1319;72456;-80
2021/11/20 01:22:19;;;;;;;8.60;3.90;;;;;;;10.25;92.39;101907.09;102769;1317;73975;-81
2021/11/20 01:25:28;;;;;;;7.30;2.40;;;;;;;10.24;92.44;101908.89;102821;1319;63293;-78
2021/11/20 01:28:48;;;;;;;;;;;;;;;;;;;;;
2021/11/20 01:31:40;;;;;;;7.60;3.30;;;;;;;10.23;92.71;101905.96;102949;1317;74966;-78
2021/11/20 01:34:49;;;;;;;;;;;;;;;;;;;;;
2021/11/20 01:37:38;;;;;;;8.90;3.70;;;;;;;10.22;92.93;101903.95;102741;1319;73092;-78
2021/11/20 01:41:06;;;;;;;6.60;3.30;;;;;;;10.23;93.15;101903.35;102312;1317;62076;-80
2021/11/20 01:43:33;;;;;;;6.70;3.40;;;;;;;10.23;93.22;101905.33;102750;1318;61219;-77
2021/11/20 01:47:05;;;;;;;8.90;3.80;;;;;;;10.21;93.44;101905.27;102687;1318;76197;-78
2021/11/20 01:50:32;;;;;;;8.20;3.90;;;;;;;10.20;93.28;101894.55;102212;1317;71430;-78
2021/11/20 01:53:39;;;;;;;6.60;2.80;;;;;;;10.23;93.34;101893.94;102725;1318;73033;-78
2021/11/20 01:57:13;;;;;;;4.70;2.90;;;;;;;10.23;93.31;101882.27;102774;1319;61403;-77
2021/11/20 02:00:42;;;;;;;10.00;3.80;;;;;;;10.25;93.53;101889.59;102352;1318;61881;-77
2021/11/20 02:03:59;;;;;;;;;;;;;;;;;;;;;
2021/11/20 02:07:33;;;;;;;8.00;3.10;;;;;;;10.25;93.42;101878.27;101877;1321;71559;-78
2021/11/20 02:11:00;;;;;;;7.80;3.50;;;;;;;10.25;93.60;101882.80;102212;1321;74158;-77
2021/11/20 02:14:19;;;;;;;;;;;;;;;;;;;;;
2021/11/20 02:17:42;;;;;;;;;;;;;;;;;;;;;
2021/11/20 02:20:40;;;;;;;9.40;4.00;;;;;;;10.25;93.43;101870.73;102353;1319;75179;-78
2021/11/20 02:23:26;;;;;;;7.60;3.40;;;;;;;10.26;93.36;101878.47;102352;1318;70207;-79
2021/11/20 02:26:13;;;;;;;8.60;3.20;;;;;;;10.27;93.38;101870.29;102659;1317;74323;-79
2021/11/20 02:29:08;;;;;;;5.50;2.40;;;;;;;10.26;93.28;101866.77;102825;1317;61218;-79
2021/11/20 02:35:22;;;;;;;6.10;3.10;;;;;;;10.28;93.21;101865.02;102312;1318;76018;-79
2021/11/20 02:38:30;;;;;;;5.10;3.60;;;;;;;10.29;93.15;101861.11;102462;1319;71600;-78
2021/11/20 02:41:30;;;;;;;5.90;3.10;;;;;;;10.30;93.06;101855.52;102272;1318;74012;-80
2021/11/20 02:44:59;;;;;;;9.00;3.40;;;;;;;10.29;93.01;101854.35;103007;1318;62385;-80
2021/11/20 02:48:08;;;;;;;5.90;2.80;;;;;;;10.29;93.15;101853.31;102385;1317;61444;-80
2021/11/20 02:51:08;;;;;;;5.80;3.40;;;;;;;10.28;93.02;101851.58;102385;1318;73873;-80
2021/11/20 02:54:03;;;;;;;7.10;3.70;;;;;;;10.29;93.07;101847.12;102427;1323;72533;-78
2021/11/20 02:57:07;;;;;;;4.20;2.90;;;;;;;10.28;93.09;101845.55;102364;1317;73414;-78
2021/11/20 03:00:07;;;;;;;7.50;3.40;;;;;;;10.28;93.17;101843.08;102403;1318;62124;-79
2021/11/20 03:03:25;;;;;;;;;;;;;;;;;;;;;
2021/11/20 03:06:54;;;;;;;7.60;3.40;;;;;;;10.30;92.92;101847.50;102506;1317;73881;-79
2021/11/20 03:09:34;;;;;;;6.60;2.70;;;;;;;10.32;92.69;101843.96;103003;1317;72320;-80
2021/11/20 03:12:52;;;;;;;10.10;3.70;;;;;;;10.32;92.77;101840.50;102673;1318;73019;-81
2021/11/20 03:16:20;;;;;;;7.80;3.40;;;;;;;10.33;92.61;101835.10;102643;1315;62232;-80
2021/11/20 03:19:29;;;;;;;6.70;3.10;;;;;;;10.33;92.52;101825.30;102432;1317;61247;-81
2021/11/20 03:22:51;;;;;;;7.60;3.30;;;;;;;10.35;92.38;101821.63;103046;1319;76000;-81
2021/11/20 03:26:01;;;;;;;5.60;3.30;;;;;;;10.37;92.53;101818.62;102646;1315;72475;-79
2021/11/20 03:29:29;;;;;;;5.30;2.50;;;;;;;10.36;92.13;101815.55;102626;1318;73004;-78
2021/11/20 03:32:56;;;;;;;7.30;2.90;;;;;;;10.35;92.09;101812.56;102462;1317;63302;-82
2021/11/20 03:36:23;;;;;;;7.80;3.70;;;;;;;10.36;92.02;101811.77;102427;1317;62640;-81
2021/11/20 03:39:41;;;;;;;;;;;;;;;;;;;;;
2021/11/20 03:43:00;;;;;;;5.00;2.90;;;;;;;10.39;91.43;101818.34;102357;1316;71426;-78
2021/11/20 03:45:59;;;;;;;6.10;2.80;;;;;;;10.40;91.14;101821.10;102513;1318;72939;-79
2021/11/20 03:48:56;;;;;;;;;;;;;;;;;;;;;
2021/11/20 03:52:12;;;;;;;6.30;3.00;;;;;;;10.42;91.16;101810.14;102550;1322;61322;-81
2021/11/20 03:55:39;;;;;;;7.10;2.80;;;;;;;10.42;90.99;101816.16;102824;1316;75027;-79
2021/11/20 03:59:00;;;;;;;5.50;2.70;;;;;;;10.43;90.74;101818.05;102465;1316;71353;-78
2021/11/20 04:02:13;;;;;;;6.90;3.40;;;;;;;10.43;90.64;101817.48;102319;1320;72997;-80
2021/11/20 04:05:42;;;;;;;7.00;3.10;;;;;;;10.44;90.53;101821.11;102384;1316;63123;-79
2021/11/20 04:09:35;;;;;;;6.10;2.80;;;;;;;10.45;90.59;101833.17;102900;1316;61304;-78
2021/11/20 04:12:30;;;;;;;4.50;3.10;;;;;;;10.45;90.51;101828.63;102423;1317;75104;-81
2021/11/20 04:15:46;;;;;;;;;;;;;;;;;;;;;
2021/11/20 04:18:55;;;;;;;4.80;2.50;;;;;;;10.47;90.34;101827.41;102759;1317;72976;-80
2021/11/20 04:22:02;;;;;;;4.90;2.20;;;;;;;10.47;90.38;101827.95;102691;1317;63166;-80
2021/11/20 04:25:12;;;;;;;4.70;2.50;;;;;;;10.46;90.44;101824.16;102420;1318;61317;-79
2021/11/20 04:28:18;;;;;;;4.60;3.20;;;;;;;10.46;90.42;101828.34;102506;1318;75054;-78
2021/11/20 04:30:46;;;;;;;9.50;3.60;;;;;;;10.45;90.37;101828.79;102259;1317;72691;-79
2021/11/20 04:34:03;;;;;;;;;;;;;;;;;;;;;
2021/11/20 04:36:47;;;;;;;6.90;2.90;;;;;;;10.46;90.34;101824.96;102173;1318;61287;-79
2021/11/20 04:39:24;;;;;;;5.30;2.30;;;;;;;10.44;90.27;101818.10;102477;1319;61447;-81
2021/11/20 04:42:11;;;;;;;10.20;3.60;;;;;;;10.43;90.30;101810.26;102243;1319;75125;-78
2021/11/20 04:45:08;;;;;;;8.10;2.90;;;;;;;10.43;90.45;101813.77;102561;1319;72560;-79
2021/11/20 04:48:05;;;;;;;;;;;;;;;;;;;;;
2021/11/20 04:51:29;;;;;;;8.00;3.30;;;;;;;10.43;90.24;101811.31;102650;1318;61358;-81
2021/11/20 04:54:28;;;;;;;10.30;4.00;;;;;;;10.42;90.32;101804.68;102541;1318;61753;-80
2021/11/20 04:57:28;;;;;;;6.10;2.30;;;;;;;10.41;90.46;101805.66;102482;1323;75083;-81
2021/11/20 05:00:04;;;;;;;9.70;3.30;;;;;;;10.40;90.28;101808.37;102399;1317;72811;-77
2021/11/20 05:03:05;;;;;;;;;;;;;;;;;;;;;
2021/11/20 05:06:17;;;;;;;7.10;3.20;;;;;;;10.41;90.28;101807.41;102693;1318;62163;-79
2021/11/20 05:08:56;;;;;;;;;;;;;;;;;;;;;
2021/11/20 05:12:11;;;;;;;;;;;;;;;;;;;;;
2021/11/20 05:15:40;;;;;;;9.80;5.00;;;;;;;10.40;90.34;101804.71;102291;1317;71469;-78
2021/11/20 05:18:31;;;;;;;8.30;4.20;;;;;;;10.39;90.29;101805.08;102613;1318;74028;-81
2021/11/20 05:21:13;;;;;;;;;;;;;;;;;;;;;
2021/11/20 05:24:22;;;;;;;11.90;4.70;;;;;;;10.41;90.35;101796.97;102321;1319;61387;-81
2021/11/20 05:27:10;;;;;;;;;;;;;;;;;;;;;
2021/11/20 05:30:05;;;;;;;12.10;6.00;;;;;;;10.42;90.47;101797.59;102591;1317;72012;-81
2021/11/20 05:32:35;;;;;;;13.90;7.40;;;;;;;10.41;90.63;101798.89;102855;1316;72141;-77
2021/11/20 05:35:46;;;;;;;10.90;5.40;;;;;;;10.41;90.73;101793.59;102642;1316;62584;-77
2021/11/20 05:38:32;;;;;;;15.60;6.90;;;;;;;10.42;90.88;101794.29;102537;1316;61452;-82
2021/11/20 05:42:01;;;;;;;11.00;5.40;;;;;;;10.39;91.00;101794.86;102699;1317;76065;-82
2021/11/20 05:45:13;;;;;;;9.60;5.90;;;;;;;10.41;91.13;101800.35;102677;1318;72518;-80
2021/11/20 05:48:30;;;;;;;10.70;6.00;;;;;;;10.40;91.11;101795.84;102317;1316;73205;-81
2021/11/20 05:51:29;;;;;;;16.70;8.80;;;;;;;10.40;91.22;101793.91;102442;1317;62014;-81
2021/11/20 05:54:30;;;;;;;;;;;;;;;;;;;;;
2021/11/20 05:57:23;;;;;;;;;;;;;;;;;;;;;
2021/11/20 06:00:35;;;;;;;;;;;;;;;;;;;;;
2021/11/20 06:04:03;;;;;;;16.40;9.00;;;;;;;10.38;91.92;101784.34;102776;1316;73037;-76
2021/11/20 06:07:31;;;;;;;13.10;7.90;;;;;;;10.38;91.87;101781.52;102709;1317;62253;-79
2021/11/20 06:10:20;;;;;;;16.80;10.40;;;;;;;10.36;92.03;101774.61;102398;1317;61746;-79
2021/11/20 06:13:02;;;;;;;16.00;8.60;;;;;;;10.35;91.94;101768.69;102493;1317;75439;-79
2021/11/20 06:15:59;;;;;;;;;;;;;;;;;;;;;
2021/11/20 06:18:57;;;;;;;;;;;;;;;;;;;;;
2021/11/20 06:22:27;;;;;;;14.00;8.70;;;;;;;10.34;91.94;101763.53;102651;1319;61961;-79
2021/11/20 06:25:00;;;;;;;15.80;8.60;;;;;;;10.34;91.97;101765.33;98676;1319;5516456;-79
2021/11/20 06:27:33;;;;;;;17.10;9.80;;;;;;;10.34;91.83;101767.44;102658;1316;72522;-79
2021/11/20 06:30:52;;;;;;;19.80;11.10;;;;;;;10.33;91.92;101764.92;102520;1318;74019;-83
2021/11/20 06:33:21;;;;;;;14.20;8.40;;;;;;;10.32;91.97;101768.13;102336;1315;63328;-79
2021/11/20 06:36:00;;;;;;;15.40;8.80;;;;;;;10.31;91.93;101766.51;102580;1316;61592;-78
2021/11/20 06:38:52;;;;;;;17.20;9.40;;;;;;;10.31;91.86;101766.65;102505;1319;75180;-79
2021/11/20 06:41:52;;;;;;;15.40;9.60;;;;;;;10.32;91.84;101767.27;102357;1318;72433;-78
2021/11/20 06:44:34;;;;;;;16.60;10.10;;;;;;;10.32;91.80;101765.83;102886;1317;71930;-79
2021/11/20 06:47:11;;;;;;;18.00;10.90;;;;;;;10.30;91.90;101772.23;102592;1317;61407;-80
2021/11/20 06:50:16;;;;;;;;;;;;;;;;;;;;;
2021/11/20 06:52:54;;;;;;;;;;;;;;;10.30;91.85;101775.77;102792;1318;76303;-81
2021/11/20 06:55:49;;;;;;;15.30;9.50;;;;;;;10.31;91.84;101778.70;102702;1315;71642;-78
2021/11/20 06:58:31;;;;;;;;;;;;;;;;;;;;;
2021/11/20 07:01:06;;;;;;;18.30;10.20;;;;;;;10.32;91.77;101778.21;102861;1315;63074;-80
2021/11/20 07:04:21;;;;;;;15.90;9.80;;;;;;;10.28;91.83;101774.16;102700;1315;61500;-80
2021/11/20 07:07:50;;;;;;;16.30;9.80;;;;;;;10.31;91.63;101782.86;102754;1315;75975;-78
2021/11/20 07:10:22;;;;;;;19.50;10.50;;;;;;;10.32;91.60;101783.00;102838;1315;71965;-79
2021/11/20 07:13:22;;;;;;;;;;;;;;;;;;;;;
2021/11/20 07:16:18;;;;;;;;;;;;;;;;;;;;;
2021/11/20 07:19:49;;;;;;;14.40;9.50;;;;;;;10.35;91.50;101777.08;102836;1316;61607;-82
2021/11/20 07:23:05;;;;;;;19.70;11.20;;;;;;;10.36;91.35;101780.66;102536;1315;75336;-78
2021/11/20 07:26:13;;;;;;;22.10;11.60;;;;;;;10.36;91.15;101775.85;102720;1317;72546;-82
2021/11/20 07:29:12;;;;;;;20.10;11.10;;;;;;;10.37;91.14;101775.60;102950;1316;73050;-79
2021/11/20 07:32:27;;;;;;;20.10;10.70;;;;;;;10.38;90.71;101775.29;102444;1318;62909;-77
2021/11/20 07:35:39;;;;;;;17.50;9.90;;;;;;;10.41;90.64;101770.97;102435;1318;60612;-77
2021/11/20 07:39:03;;;;;;;;;;;;;;;;;;;;;
2021/11/20 07:41:52;;;;;;;12.50;8.70;;;;;;;10.43;90.34;101769.02;102677;1315;72633;-76
2021/11/20 07:45:02;;;;;;;14.40;9.10;;;;;;;10.42;90.39;101766.08;102863;1315;75340;-78
2021/11/20 07:48:01;;;;;;;15.10;9.80;;;;;;;10.42;90.54;101761.73;102671;1315;63495;-77
2021/11/20 07:50:49;;;;;;;15.70;10.00;;;;;;;10.43;90.40;101760.52;102535;1318;61164;-78
2021/11/20 07:53:44;;;;;;;15.60;9.70;;;;;;;10.44;90.42;101759.44;102560;1316;76242;-76
2021/11/20 07:56:41;;;;;;;13.70;9.90;;;;;;;10.44;90.69;101756.00;102479;1315;72710;-77
2021/11/20 07:59:31;;;;;;;15.90;10.30;;;;;;;10.43;90.84;101749.57;102419;1315;73015;-76
2021/11/20 08:02:21;;;;;;;14.90;9.10;;;;;;;10.41;91.15;101747.80;102412;1315;62402;-76
2021/11/20 08:05:19;;;;;;;15.20;8.80;;;;;;;10.40;91.22;101748.83;102460;1315;61598;-78
2021/11/20 08:08:27;;;;;;;16.30;8.60;;;;;;;10.36;91.21;101746.52;102252;1315;74279;-77
2021/11/20 08:11:44;;;;;;;24.50;10.50;;;;;;;10.35;91.48;101735.00;102231;1316;72710;-76
2021/11/20 08:14:43;;;;;;;;;;;;;;;;;;;;;
2021/11/20 08:17:31;;;;;;;16.90;9.90;;;;;;;10.33;91.41;101727.75;102302;1315;62304;-76
2021/11/20 08:20:27;;;;;;;18.40;10.80;;;;;;;10.34;91.31;101730.42;102457;1315;61216;-77
2021/11/20 08:22:54;;;;;;;16.20;10.60;;;;;;;10.37;91.55;101728.39;102354;1317;75956;-77
2021/11/20 08:26:48;;;;;;;16.70;11.60;;;;;;;10.39;91.40;101731.78;102430;1316;71468;-77
2021/11/20 08:28:56;;;;;;;15.10;9.30;;;;;;;10.40;91.38;101734.16;102163;1315;73999;-75
2021/11/20 08:32:03;;;;;;;16.50;9.60;;;;;;;10.40;91.23;101727.73;102675;1315;62428;-76
2021/11/20 08:35:07;;;;;;;18.10;10.50;;;;;;;10.42;91.03;101726.55;102395;1315;61431;-76
2021/11/20 08:37:46;;;;;;;21.10;9.70;;;;;;;10.42;90.67;101728.25;102421;1315;74949;-76
2021/11/20 08:40:38;;;;;;;14.00;9.40;;;;;;;10.44;90.36;101723.73;102323;1315;72896;-76
2021/11/20 08:43:29;;;;;;;13.40;8.60;;;;;;;10.45;90.39;101720.42;102281;1317;74004;-77
2021/11/20 08:45:57;;;;;;;15.10;8.40;;;;;;;10.46;90.05;101721.30;102405;1315;63419;-78
2021/11/20 08:49:16;;;;;;;16.40;8.60;;;;;;;10.48;89.93;101718.90;102461;1315;61235;-78
2021/11/20 08:52:10;;;;;;;15.60;8.70;;;;;;;10.49;89.31;101719.30;102227;1316;76137;-76
2021/11/20 08:55:05;;;;;;;12.30;8.00;;;;;;;10.51;88.98;101715.88;102338;1316;71255;-77
2021/11/20 08:57:59;;;;;;;11.00;7.90;;;;;;;10.54;88.87;101712.96;101999;1321;73629;-76
2021/11/20 09:00:57;;;;;;;;;;;;;;;;;;;;;
2021/11/20 09:04:19;;;;;;;;;;;;;;;;;;;;;
2021/11/20 09:07:27;;;;;;;14.80;8.90;;;;;;;10.65;88.01;101700.39;101866;1321;75447;-77
2021/11/20 09:10:33;;;;;;;;;;;;;;;;;;;;;
2021/11/20 09:13:30;;;;;;;;;;;;;;;10.72;87.36;101701.33;102163;1321;73039;-77
2021/11/20 09:16:39;;;;;;;12.70;7.30;;;;;;;10.76;86.92;101696.29;102196;1318;62367;-77
2021/11/20 09:19:39;;;;;;;9.00;6.50;;;;;;;10.78;86.68;101692.93;101908;1318;61966;-76
2021/11/20 09:23:08;;;;;;;9.00;6.10;;;;;;;10.82;86.40;101686.36;102251;1321;74948;-77
2021/11/20 09:26:20;;;;;;;10.30;7.50;;;;;;;10.86;86.15;101689.69;102221;1318;70465;-79
2021/11/20 09:29:24;;;;;;;8.30;6.00;;;;;;;10.93;86.04;101690.25;101993;1321;72188;-76
2021/11/20 09:32:39;;;;;;;11.40;7.80;;;;;;;10.95;85.75;101688.06;102317;1321;61264;-77
2021/11/20 09:35:47;;;;;;;9.00;6.70;;;;;;;10.99;85.83;101681.80;102038;1318;61357;-78
2021/11/20 09:39:04;;;;;;;;;;;;;;;;;;;;;
2021/11/20 09:42:00;;;;;;;9.30;6.60;;;;;;;10.99;84.72;101682.46;102251;1316;71177;-77
2021/11/20 09:45:21;;;;;;;;;;;;;;;;;;;;;
2021/11/20 09:48:14;;;;;;;;;;;;;;;;;;;;;
2021/11/20 09:51:30;;;;;;;;;;;;;;;;;;;;;
2021/11/20 09:54:46;;;;;;;9.20;6.30;;;;;;;11.11;83.70;101682.63;102594;1316;76114;-76
2021/11/20 09:57:58;;;;;;;11.90;6.50;;;;;;;11.13;83.82;101680.75;102472;1315;72427;-77
2021/11/20 10:01:02;;;;;;;9.40;6.30;;;;;;;11.15;83.48;101679.17;102308;1316;74027;-77
2021/11/20 10:04:05;;;;;;;11.50;7.30;;;;;;;11.18;83.28;101671.60;102376;1315;62087;-77
2021/11/20 10:07:48;;;;;;;11.10;7.70;;;;;;;11.19;83.27;101666.74;102404;1315;61295;-76
2021/11/20 10:11:07;;;;;;;;;;;;;;;;;;;;;
2021/11/20 10:14:17;;;;;;;12.80;7.30;;;;;;;11.18;82.80;101652.07;102434;1315;72649;-77
2021/11/20 10:17:19;;;;;;;9.40;6.20;;;;;;;11.21;82.11;101644.73;102359;1315;76396;-77
2021/11/20 10:20:49;;;;;;;10.10;6.50;;;;;;;11.24;81.97;101646.89;102403;1315;61914;-76
2021/11/20 10:23:46;;;;;;;7.30;4.60;;;;;;;11.24;81.34;101644.97;102266;1313;62518;-76
2021/11/20 10:26:29;;;;;;;11.90;6.40;;;;;;;11.22;80.96;101650.81;102225;1315;76123;-75
2021/11/20 10:29:50;;;;;;;10.20;6.30;;;;;;;11.21;80.60;101638.71;102363;1315;71486;-78
2021/11/20 10:32:43;;;;;;;10.00;7.10;;;;;;;11.22;80.71;101641.41;102343;1315;73088;-76
2021/11/20 10:35:54;;;;;;;11.30;6.70;;;;;;;11.22;79.92;101637.89;102300;1316;61336;-76
2021/11/20 10:38:31;;;;;;;10.20;5.70;;;;;;;11.21;79.78;101631.95;102359;1315;61630;-77
2021/11/20 10:41:22;;;;;;;;;;;;;;;;;;;;;
2021/11/20 10:44:34;;;;;;;8.00;6.00;;;;;;;11.22;79.46;101621.40;102405;1315;71632;-79
2021/11/20 10:47:34;;;;;;;9.50;6.00;;;;;;;11.22;79.01;101621.66;102233;1319;72488;-78
2021/11/20 10:50:29;;;;;;;9.10;5.90;;;;;;;11.19;78.85;101609.52;102403;1316;61404;-76
2021/11/20 10:53:09;;;;;;;8.30;5.40;;;;;;;11.21;79.49;101604.39;102359;1315;61726;-76
2021/11/20 10:56:27;;;;;;;9.90;6.50;;;;;;;11.25;79.35;101599.52;102774;1315;73619;-77
2021/11/20 10:59:28;;;;;;;;;;;;;;;;;;;;;
2021/11/20 11:02:15;;;;;;;9.60;5.70;;;;;;;11.30;78.21;101587.21;102355;1317;73269;-79
2021/11/20 11:05:10;;;;;;;10.70;6.10;;;;;;;11.32;78.32;101588.73;102436;1315;62161;-76
2021/11/20 11:07:52;;;;;;;8.70;5.60;;;;;;;11.28;77.51;101584.34;102480;1315;61334;-78
2021/11/20 11:11:11;;;;;;;8.60;6.00;;;;;;;11.27;77.44;101581.25;102427;1315;74983;-77
2021/11/20 11:13:48;;;;;;;11.70;5.80;;;;;;;11.25;77.50;101571.90;102380;1315;71526;-76
2021/11/20 11:17:00;;;;;;;9.30;5.80;;;;;;;11.24;77.39;101574.11;102261;1318;74205;-77
2021/11/20 11:19:32;;;;;;;6.60;4.70;;;;;;;11.22;77.51;101568.48;102477;1315;61278;-76
2021/11/20 11:22:11;;;;;;;12.10;6.10;;;;;;;11.21;77.14;101574.81;102485;1316;61860;-77
2021/11/20 11:25:21;;;;;;;9.20;5.10;;;;;;;11.19;77.22;101565.94;102427;1315;74914;-77
2021/11/20 11:28:25;;;;;;;10.90;6.20;;;;;;;11.16;77.06;101559.54;102261;1316;71452;-77
2021/11/20 11:31:14;;;;;;;9.20;6.00;;;;;;;11.14;77.36;101550.17;102383;1316;73306;-78
2021/11/20 11:34:11;;;;;;;8.40;5.40;;;;;;;11.10;77.01;101542.48;102371;1316;61426;-76
2021/11/20 11:37:23;;;;;;;;;;;;;;;;;;;;;
2021/11/20 11:40:22;;;;;;;9.60;5.90;;;;;;;11.02;76.51;101546.61;102374;1317;74957;-76
2021/11/20 11:43:01;;;;;;;9.80;4.70;;;;;;;10.97;76.17;101540.71;102021;1315;72651;-77
2021/11/20 11:45:57;;;;;;;10.60;5.60;;;;;;;10.95;76.64;101532.33;102438;1316;73278;-78
2021/11/20 11:48:56;;;;;;;7.70;4.50;;;;;;;10.92;76.75;101524.80;102379;1315;63113;-77
2021/11/20 11:52:21;;;;;;;8.90;4.80;;;;;;;10.92;77.00;101522.48;102408;1316;61308;-76
2021/11/20 11:55:17;;;;;;;9.10;5.90;;;;;;;10.93;76.62;101519.98;102055;1322;75133;-77
2021/11/20 11:58:06;;;;;;;8.70;5.00;;;;;;;10.90;76.65;101514.54;102006;1323;72608;-78
2021/11/20 12:00:40;;;;;;;8.70;4.90;;;;;;;10.88;76.03;101512.71;102400;1316;74308;-77
2021/11/20 12:03:29;;;;;;;7.30;4.80;;;;;;;10.87;76.03;101502.85;102464;1317;62002;-76
2021/11/20 12:06:20;;;;;;;11.40;5.40;;;;;;;10.88;76.01;101494.40;102411;1316;61315;-78
2021/11/20 12:08:58;;;;;;;10.30;4.70;;;;;;;10.88;75.95;101491.81;102376;1316;76105;-75
2021/11/20 12:11:49;;;;;;;8.00;4.70;;;;;;;10.87;75.72;101489.98;102480;1316;71498;-77
2021/11/20 12:14:33;;;;;;;7.20;4.60;;;;;;;10.87;75.69;101474.86;102503;1316;74140;-76
2021/11/20 12:17:18;;;;;;;9.20;5.30;;;;;;;10.85;75.15;101475.51;102390;1315;61942;-78
2021/11/20 12:19:52;;;;;;;6.50;4.40;;;;;;;10.86;75.01;101468.31;102443;1311;61323;-78
2021/11/20 12:22:56;;;;;;;7.00;4.50;;;;;;;10.88;74.90;101460.52;102526;1315;74994;-76
2021/11/20 12:25:42;;;;;;;9.20;4.60;;;;;;;10.87;74.55;101452.42;102373;1316;71420;-77
2021/11/20 12:28:11;;;;;;;;;;;;;;;10.87;74.46;101452.75;102358;1315;74049;-76
2021/11/20 12:31:21;;;;;;;9.40;4.70;;;;;;;10.87;74.03;101452.80;102327;1316;63328;-78
2021/11/20 12:34:21;;;;;;;8.70;4.00;;;;;;;10.86;73.34;101445.61;102065;1317;61393;-77
2021/11/20 12:37:03;;;;;;;8.20;5.00;;;;;;;10.89;73.73;101443.94;102315;1315;74647;-78
2021/11/20 12:39:43;;;;;;;9.20;5.50;;;;;;;10.88;73.37;101435.67;102336;1315;71405;-77
2021/11/20 12:42:30;;;;;;;8.30;4.90;;;;;;;10.90;73.20;101430.02;102320;1316;71868;-79
2021/11/20 12:45:09;;;;;;;9.00;4.90;;;;;;;10.88;71.77;101431.77;102381;1315;61394;-76
2021/11/20 12:48:13;;;;;;;9.90;5.00;;;;;;;10.87;71.85;101426.10;102392;1316;61358;-77
2021/11/20 12:50:54;;;;;;;11.60;6.90;;;;;;;10.81;71.63;101430.86;102297;1316;76103;-77
2021/11/20 12:53:32;;;;;;;14.40;7.60;;;;;;;10.76;72.57;101422.94;102348;1316;71489;-77
2021/11/20 12:56:01;;;;;;;15.60;8.90;;;;;;;10.73;72.94;101412.62;102510;1316;73958;-77
2021/11/20 12:58:41;;;;;;;12.80;7.80;;;;;;;10.70;73.29;101412.55;102396;1316;62100;-78
2021/11/20 13:01:12;;;;;;;15.40;8.80;;;;;;;10.66;73.38;101404.34;102227;1316;61867;-75
2021/11/20 13:03:42;;;;;;;10.60;5.90;;;;;;;10.63;72.97;101402.17;102513;1315;74787;-76
2021/11/20 13:06:21;;;;;;;16.10;7.30;;;;;;;10.58;72.50;101402.14;102413;1315;71519;-77
2021/11/20 13:08:58;;;;;;;14.50;7.20;;;;;;;10.52;72.62;101405.07;102344;1316;71880;-75
2021/11/20 13:11:35;;;;;;;12.50;7.80;;;;;;;10.49;73.22;101394.21;102398;1315;62445;-79
2021/11/20 13:14:26;;;;;;;15.00;7.90;;;;;;;10.45;73.48;101388.95;102348;1315;61710;-79
2021/11/20 13:16:56;;;;;;;14.30;6.90;;;;;;;10.39;73.19;101386.05;102313;1316;74864;-75
2021/11/20 13:19:46;;;;;;;14.00;7.50;;;;;;;10.33;73.48;101379.98;102377;1316;73119;-77
2021/11/20 13:22:21;;;;;;;12.40;7.00;;;;;;;10.28;73.50;101378.00;102373;1315;71904;-78
2021/11/20 13:25:12;;;;;;;12.90;6.10;;;;;;;10.24;73.85;101380.66;102337;1316;63002;-76
2021/11/20 13:27:39;;;;;;;10.10;5.80;;;;;;;10.19;73.94;101373.50;102408;1316;61251;-77
2021/11/20 13:30:08;;;;;;;20.60;9.60;;;;;;;10.16;74.14;101375.44;102265;1315;61382;-78
2021/11/20 13:32:35;;;;;;;24.20;10.10;;;;;;;10.12;74.74;101371.27;102375;1316;72509;-77
2021/11/20 13:35:02;;;;;;;20.30;10.60;;;;;;;10.08;74.93;101369.36;102390;1316;74164;-78
2021/11/20 13:37:29;;;;;;;21.90;10.60;;;;;;;10.06;75.45;101359.10;102427;1315;61363;-77
2021/11/20 13:39:56;;;;;;;20.60;10.70;;;;;;;10.04;75.50;101355.98;102362;1316;61418;-76
2021/11/20 13:42:43;;;;;;;25.10;13.00;;;;;;;10.03;75.95;101355.96;102454;1315;76704;-77
2021/11/20 13:45:09;;;;;;;24.00;12.80;;;;;;;9.99;76.24;101355.77;102388;1316;71402;-77
2021/11/20 13:48:11;;;;;;;27.60;13.70;;;;;;;9.98;76.51;101346.91;102327;1316;74325;-77
2021/11/20 13:50:54;;;;;;;;;;;;;;;;;;;;;
2021/11/20 13:53:39;;;;;;;;;;;;;;;;;;;;;
2021/11/20 13:56:10;;;;;;;22.20;10.70;;;;;;;9.86;76.59;101331.48;102405;1315;76676;-76
2021/11/20 13:58:41;;;;;;;28.10;13.30;;;;;;;9.78;76.64;101330.77;102534;1315;71376;-78
2021/11/20 14:01:21;;;;;;;24.50;12.20;;;;;;;9.74;77.09;101328.94;102333;1316;72399;-76
2021/11/20 14:03:59;;;;;;;26.50;12.10;;;;;;;9.70;77.28;101332.36;102315;1316;62237;-76
2021/11/20 14:06:28;;;;;;;25.00;13.40;;;;;;;9.68;77.29;101319.30;102284;1319;61404;-77
2021/11/20 14:09:19;;;;;;;27.00;13.70;;;;;;;9.65;77.57;101325.46;102262;1315;74935;-79
2021/11/20 14:12:03;;;;;;;27.50;14.30;;;;;;;9.62;77.78;101313.23;102450;1315;72473;-76
2021/11/20 14:14:37;;;;;;;25.90;10.70;;;;;;;9.58;77.96;101308.46;102368;1316;73725;-77
2021/11/20 14:17:37;;;;;;;24.30;13.20;;;;;;;9.57;78.27;101311.36;102375;1316;63359;-77
2021/11/20 14:20:17;;;;;;;21.00;11.00;;;;;;;9.58;78.68;101302.70;102246;1316;61715;-77
2021/11/20 14:22:46;;;;;;;24.30;14.00;;;;;;;9.55;78.55;101297.61;102270;1316;75986;-79
2021/11/20 14:25:25;;;;;;;23.90;13.40;;;;;;;9.54;78.97;101293.64;101836;1318;386221;-78
2021/11/20 14:28:02;;;;;;;23.40;12.40;;;;;;;9.52;79.40;101289.63;102385;1316;73065;-77
2021/11/20 14:31:14;;;;;;;29.30;15.00;;;;;;;9.53;79.46;101286.02;102251;1319;62875;-77
2021/11/20 14:34:19;;;;;;;29.40;15.00;;;;;;;9.54;79.53;101284.33;102429;1316;61310;-75
2021/11/20 14:37:35;;;;;;;31.90;14.00;;;;;;;9.54;79.46;101270.95;101643;1323;74994;-78
2021/11/20 14:40:16;;;;;;;25.00;12.70;;;;;;;9.53;80.05;101270.67;101486;1324;72494;-78
2021/11/20 14:42:46;;;;;;;25.60;13.50;;;;;;;9.52;80.21;101265.27;101651;1324;72910;-79
2021/11/20 14:45:20;;;;;;;32.60;17.10;;;;;;;9.52;80.37;101263.32;102033;1316;63302;-79
2021/11/20 14:48:04;;;;;;;;;;;;;;;;;;;;;
2021/11/20 14:50:35;;;;;;;29.70;16.70;;;;;;;9.52;80.82;101252.54;102361;1315;75487;-78
2021/11/20 14:53:07;;;;;;;32.80;17.60;;;;;;;9.51;81.06;101250.73;102092;1316;73443;-75